createdAt,value
2019-06-27T00:00:52.492Z,14.10
2019-06-27T00:03:20.897Z,13.60
2019-06-27T00:05:49.333Z,14.07
2019-06-27T00:08:17.693Z,13.33
2019-06-27T00:10:46.041Z,13.60
2019-06-27T00:13:14.447Z,12.43
2019-06-27T00:15:42.800Z,12.00
2019-06-27T00:18:11.203Z,12.70
2019-06-27T00:20:39.557Z,12.40
2019-06-27T00:23:07.932Z,13.60
2019-06-27T00:25:36.307Z,14.10
2019-06-27T00:28:04.688Z,14.10
2019-06-27T00:30:33.030Z,13.80
2019-06-27T00:33:01.409Z,13.90
2019-06-27T00:35:29.782Z,13.75
2019-06-27T00:37:59.091Z,14.30
2019-06-27T00:40:27.418Z,13.40
2019-06-27T00:42:55.805Z,13.32
2019-06-27T00:45:24.155Z,12.60
2019-06-27T00:47:52.519Z,12.87
2019-06-27T00:50:20.886Z,12.88
2019-06-27T00:52:49.256Z,13.50
2019-06-27T00:57:58.705Z,12.82
2019-06-27T01:00:27.078Z,12.70
2019-06-27T01:05:29.752Z,13.00
2019-06-27T01:07:58.162Z,13.00
2019-06-27T01:10:27.410Z,12.20
2019-06-27T01:12:55.783Z,12.17
2019-06-27T01:15:24.205Z,12.90
2019-06-27T01:17:52.497Z,13.95
2019-06-27T01:22:57.167Z,13.80
2019-06-27T01:25:25.554Z,12.60
2019-06-27T01:27:53.898Z,11.60
2019-06-27T01:30:22.246Z,12.90
2019-06-27T01:35:25.735Z,13.00
2019-06-27T01:37:54.097Z,12.10
2019-06-27T01:40:22.480Z,12.57
2019-06-27T01:42:50.845Z,13.27
2019-06-27T01:45:22.665Z,14.05
2019-06-27T01:47:51.029Z,12.70
2019-06-27T01:50:20.389Z,12.77
2019-06-27T01:52:48.776Z,13.40
2019-06-27T01:55:17.123Z,13.17
2019-06-27T01:57:47.076Z,13.80
2019-06-27T02:00:13.893Z,13.77
2019-06-27T02:02:42.268Z,13.20
2019-06-27T02:05:10.636Z,13.40
2019-06-27T02:07:38.995Z,12.97
2019-06-27T02:10:07.397Z,13.10
2019-06-27T02:12:35.747Z,13.13
2019-06-27T02:15:04.831Z,13.73
2019-06-27T02:17:33.188Z,13.62
2019-06-27T02:22:35.880Z,14.85
2019-06-27T02:25:04.250Z,13.33
2019-06-27T02:27:32.585Z,12.67
2019-06-27T02:30:01.045Z,13.10
2019-06-27T02:32:29.423Z,12.30
2019-06-27T02:34:57.764Z,12.70
2019-06-27T02:37:26.149Z,11.97
2019-06-27T02:39:54.519Z,12.53
2019-06-27T02:42:23.053Z,12.80
2019-06-27T02:44:51.428Z,13.33
2019-06-27T02:47:19.798Z,14.90
2019-06-27T02:52:22.451Z,16.50
2019-06-27T02:54:58.926Z,15.87
2019-06-27T02:57:27.316Z,15.77
2019-06-27T03:02:30.026Z,17.77
2019-06-27T03:04:58.423Z,15.80
2019-06-27T03:07:26.795Z,16.20
2019-06-27T03:09:55.190Z,17.52
2019-06-27T03:12:23.611Z,18.00
2019-06-27T03:14:51.982Z,17.70
2019-06-27T03:17:20.441Z,16.03
2019-06-27T03:19:48.787Z,17.07
2019-06-27T03:22:17.171Z,16.77
2019-06-27T03:24:45.550Z,16.17
2019-06-27T03:27:13.938Z,16.93
2019-06-27T03:32:16.660Z,16.23
2019-06-27T03:34:45.033Z,16.23
2019-06-27T03:37:13.449Z,15.80
2019-06-27T03:39:41.834Z,16.30
2019-06-27T03:42:10.216Z,15.70
2019-06-27T03:44:38.618Z,16.40
2019-06-27T03:47:07.017Z,15.90
2019-06-27T03:49:35.377Z,13.53
2019-06-27T03:52:03.789Z,13.43
2019-06-27T03:57:06.443Z,15.30
2019-06-27T03:59:34.823Z,14.50
2019-06-27T04:02:03.217Z,15.38
2019-06-27T04:04:31.571Z,12.87
2019-06-27T04:06:59.926Z,15.10
2019-06-27T04:09:28.310Z,14.57
2019-06-27T04:11:56.726Z,13.87
2019-06-27T04:14:25.083Z,14.43
2019-06-27T04:16:53.439Z,12.23
2019-06-27T04:19:21.872Z,14.33
2019-06-27T04:21:50.234Z,14.23
2019-06-27T04:26:52.923Z,14.38
2019-06-27T04:29:33.561Z,14.43
2019-06-27T04:31:49.749Z,14.87
2019-06-27T04:34:19.893Z,14.27
2019-06-27T04:36:46.417Z,15.15
2019-06-27T04:39:14.818Z,15.50
2019-06-27T04:41:43.177Z,15.43
2019-06-27T04:44:11.564Z,15.10
2019-06-27T04:46:39.927Z,13.73
2019-06-27T04:49:13.014Z,13.10
2019-06-27T04:51:36.661Z,15.20
2019-06-27T04:54:05.039Z,13.90
2019-06-27T04:56:33.411Z,14.03
2019-06-27T04:59:01.778Z,14.57
2019-06-27T05:04:04.457Z,13.38
2019-06-27T05:06:33.778Z,13.47
2019-06-27T05:09:02.133Z,13.57
2019-06-27T05:11:49.736Z,13.10
2019-06-27T05:14:23.493Z,13.10
2019-06-27T05:16:52.775Z,13.20
2019-06-27T05:21:55.512Z,12.15
2019-06-27T05:24:23.905Z,12.30
2019-06-27T05:26:52.245Z,12.27
2019-06-27T05:29:20.609Z,11.60
2019-06-27T05:31:48.982Z,12.90
2019-06-27T05:34:17.337Z,12.67
2019-06-27T05:36:45.695Z,11.90
2019-06-27T05:41:52.268Z,12.50
2019-06-27T05:44:22.715Z,12.13
2019-06-27T05:46:51.065Z,11.20
2019-06-27T05:49:40.817Z,11.80
2019-06-27T05:52:09.167Z,12.27
2019-06-27T05:54:37.528Z,12.13
2019-06-27T05:57:05.881Z,11.47
2019-06-27T05:59:51.290Z,11.43
2019-06-27T06:02:19.658Z,11.70
2019-06-27T06:04:54.184Z,10.47
2019-06-27T06:07:22.529Z,10.30
2019-06-27T06:12:30.194Z,11.63
2019-06-27T06:14:58.561Z,11.93
2019-06-27T06:17:26.955Z,11.13
2019-06-27T06:22:29.565Z,12.13
2019-06-27T06:24:58.382Z,11.20
2019-06-27T06:27:26.307Z,11.63
2019-06-27T06:29:54.665Z,10.83
2019-06-27T06:32:23.038Z,10.80
2019-06-27T06:34:51.422Z,11.10
2019-06-27T06:37:19.764Z,11.07
2019-06-27T06:39:48.185Z,11.83
2019-06-27T06:42:16.561Z,12.13
2019-06-27T06:44:48.757Z,12.70
2019-06-27T06:47:17.136Z,12.07
2019-06-27T06:49:47.505Z,13.03
2019-06-27T06:52:15.883Z,11.53
2019-06-27T06:54:50.194Z,11.67
2019-06-27T06:57:18.564Z,13.30
2019-06-27T07:00:03.540Z,11.33
2019-06-27T07:02:35.888Z,10.97
2019-06-27T07:05:07.864Z,11.10
2019-06-27T07:07:53.006Z,12.50
2019-06-27T07:10:21.381Z,12.20
2019-06-27T07:13:09.277Z,12.50
2019-06-27T07:15:38.792Z,11.10
2019-06-27T07:18:10.518Z,13.00
2019-06-27T07:20:42.394Z,12.50
2019-06-27T07:23:11.756Z,12.53
2019-06-27T07:25:40.146Z,12.47
2019-06-27T07:28:08.624Z,11.70
2019-06-27T07:30:56.313Z,12.60
2019-06-27T07:33:24.682Z,14.03
2019-06-27T07:38:27.462Z,13.13
2019-06-27T07:40:59.174Z,12.17
2019-06-27T07:43:27.533Z,12.67
2019-06-27T07:45:59.529Z,13.13
2019-06-27T07:48:27.889Z,12.27
2019-06-27T07:51:06.953Z,12.13
2019-06-27T07:53:35.311Z,13.20
2019-06-27T07:56:09.572Z,11.70
2019-06-27T08:01:12.236Z,13.10
2019-06-27T08:03:40.600Z,13.80
2019-06-27T08:06:09.891Z,13.33
2019-06-27T08:11:12.636Z,13.98
2019-06-27T08:13:41.864Z,12.30
2019-06-27T08:16:10.227Z,13.90
2019-06-27T08:18:38.579Z,14.75
2019-06-27T08:21:20.514Z,13.30
2019-06-27T08:23:48.860Z,12.57
2019-06-27T08:26:20.642Z,13.50
2019-06-27T08:28:50.894Z,12.50
2019-06-27T08:31:19.318Z,13.80
2019-06-27T08:33:50.900Z,13.00
2019-06-27T08:36:19.265Z,11.57
2019-06-27T08:39:04.788Z,11.97
2019-06-27T08:44:07.508Z,13.43
2019-06-27T08:46:39.344Z,13.70
2019-06-27T08:49:07.690Z,13.50
2019-06-27T08:51:42.381Z,12.83
2019-06-27T08:54:10.739Z,14.40
2019-06-27T08:56:41.069Z,12.50
2019-06-27T09:02:09.032Z,12.93
2019-06-27T09:04:33.322Z,14.03
2019-06-27T09:07:05.893Z,14.23
2019-06-27T09:09:42.470Z,13.20
2019-06-27T09:12:10.825Z,14.30
2019-06-27T09:14:45.090Z,13.37
2019-06-27T09:17:13.480Z,12.57
2019-06-27T09:19:54.526Z,13.07
2019-06-27T09:22:22.916Z,14.07
2019-06-27T09:24:59.386Z,12.87
2019-06-27T09:27:34.365Z,12.47
2019-06-27T09:30:02.829Z,11.70
2019-06-27T09:32:32.264Z,12.03
2019-06-27T09:35:06.268Z,11.70
2019-06-27T09:37:34.614Z,10.53
2019-06-27T09:40:13.063Z,11.33
2019-06-27T09:42:41.420Z,11.40
2019-06-27T09:45:13.499Z,10.80
2019-06-27T09:47:41.849Z,11.87
2019-06-27T09:50:25.011Z,11.40
2019-06-27T09:52:53.357Z,10.80
2019-06-27T09:55:26.112Z,11.07
2019-06-27T09:57:54.480Z,9.60
2019-06-27T10:00:33.683Z,11.10
2019-06-27T10:03:02.155Z,10.53
2019-06-27T10:05:40.331Z,11.10
2019-06-27T10:08:17.175Z,11.33
2019-06-27T10:10:45.539Z,11.57
2019-06-27T10:13:15.792Z,12.10
2019-06-27T10:15:44.147Z,12.47
2019-06-27T10:18:24.915Z,11.40
2019-06-27T10:20:53.271Z,12.50
2019-06-27T10:23:21.638Z,12.30
2019-06-27T10:25:49.987Z,13.87
2019-06-27T10:28:18.383Z,13.63
2019-06-27T10:30:49.128Z,11.90
2019-06-27T10:33:15.375Z,12.47
2019-06-27T10:35:43.722Z,13.00
2019-06-27T10:38:15.626Z,13.20
2019-06-27T10:40:43.982Z,14.23
2019-06-27T10:43:15.356Z,14.27
2019-06-27T10:45:43.780Z,14.00
2019-06-27T10:48:23.944Z,15.60
2019-06-27T10:50:54.613Z,14.33
2019-06-27T10:55:55.094Z,17.23
2019-06-27T10:58:24.352Z,16.40
2019-06-27T11:00:52.707Z,15.57
2019-06-27T11:03:38.418Z,16.98
2019-06-27T11:08:38.094Z,13.95
2019-06-27T11:11:06.475Z,13.23
2019-06-27T11:13:35.878Z,12.40
2019-06-27T11:18:38.593Z,12.88
2019-06-27T11:21:06.961Z,12.83
2019-06-27T11:23:35.314Z,13.75
2019-06-27T11:26:04.736Z,13.90
2019-06-27T11:28:37.536Z,12.90
2019-06-27T11:31:06.681Z,13.90
2019-06-27T11:33:46.857Z,13.70
2019-06-27T11:36:15.237Z,15.00
2019-06-27T11:38:43.891Z,14.43
2019-06-27T11:41:12.840Z,14.53
2019-06-27T11:43:43.225Z,13.50
2019-06-27T11:46:12.214Z,12.90
2019-06-27T11:48:42.551Z,14.57
2019-06-27T11:51:10.901Z,13.32
2019-06-27T11:53:39.263Z,12.80
2019-06-27T11:56:07.613Z,13.52
2019-06-27T11:58:35.967Z,13.17
2019-06-27T12:01:05.238Z,13.85
2019-06-27T12:03:49.443Z,14.15
2019-06-27T12:06:07.907Z,14.80
2019-06-27T12:08:36.362Z,15.07
2019-06-27T12:11:05.529Z,14.18
2019-06-27T12:13:39.627Z,13.07
2019-06-27T12:16:07.962Z,14.23
2019-06-27T12:18:39.740Z,14.55
2019-06-27T12:21:10.007Z,15.55
2019-06-27T12:23:38.359Z,14.60
2019-06-27T12:26:06.703Z,14.07
2019-06-27T12:31:20.130Z,14.73
2019-06-27T12:34:07.227Z,13.48
2019-06-27T12:36:37.838Z,14.18
2019-06-27T12:39:06.190Z,14.95
2019-06-27T12:41:36.490Z,13.98
2019-06-27T12:44:04.881Z,14.87
2019-06-27T12:46:50.919Z,14.55
2019-06-27T12:49:19.285Z,15.65
2019-06-27T12:51:49.566Z,15.30
2019-06-27T12:54:17.914Z,15.57
2019-06-27T12:56:46.248Z,15.55
2019-06-27T12:59:14.616Z,15.70
2019-06-27T13:01:53.983Z,14.43
2019-06-27T13:04:24.130Z,15.55
2019-06-27T13:09:25.015Z,16.10
2019-06-27T13:11:53.293Z,15.03
2019-06-27T13:14:21.645Z,15.73
2019-06-27T13:16:53.703Z,14.87
2019-06-27T13:19:22.046Z,16.80
2019-06-27T13:21:51.311Z,15.43
2019-06-27T13:24:19.694Z,13.70
2019-06-27T13:26:54.755Z,16.07
2019-06-27T13:29:27.770Z,14.70
2019-06-27T13:32:02.390Z,15.27
2019-06-27T13:34:40.495Z,13.70
2019-06-27T13:37:03.670Z,14.43
2019-06-27T13:42:10.337Z,14.98
2019-06-27T13:44:51.346Z,14.05
2019-06-27T13:47:20.371Z,14.07
2019-06-27T13:49:51.598Z,14.00
2019-06-27T13:52:19.947Z,13.97
2019-06-27T13:54:48.316Z,14.55
2019-06-27T13:57:16.720Z,14.27
2019-06-27T13:59:46.071Z,14.35
2019-06-27T14:02:14.452Z,15.57
2019-06-27T14:04:56.141Z,16.02
2019-06-27T14:07:30.013Z,15.48
2019-06-27T14:09:58.374Z,14.33
2019-06-27T14:12:26.736Z,14.20
2019-06-27T14:14:59.663Z,13.77
2019-06-27T14:17:24.516Z,13.77
2019-06-27T14:19:52.950Z,15.20
2019-06-27T14:22:33.439Z,14.20
2019-06-27T14:24:53.818Z,14.83
2019-06-27T14:27:23.134Z,14.20
2019-06-27T14:29:51.520Z,14.53
2019-06-27T14:32:19.901Z,13.47
2019-06-27T14:34:48.267Z,14.82
2019-06-27T14:37:22.058Z,13.63
2019-06-27T14:39:50.451Z,14.20
2019-06-27T14:42:18.802Z,15.40
2019-06-27T14:44:47.154Z,15.20
2019-06-27T14:47:26.134Z,16.87
2019-06-27T14:49:54.498Z,17.07
2019-06-27T14:52:22.852Z,15.70
2019-06-27T14:54:51.204Z,16.30
2019-06-27T14:57:19.564Z,14.90
2019-06-27T14:59:47.920Z,15.60
2019-06-27T15:04:52.821Z,15.75
2019-06-27T15:07:21.080Z,15.73
2019-06-27T15:09:49.428Z,14.33
2019-06-27T15:12:17.783Z,13.97
2019-06-27T15:14:46.128Z,15.10
2019-06-27T15:17:18.346Z,14.17
2019-06-27T15:19:47.590Z,12.37
2019-06-27T15:22:15.961Z,15.47
2019-06-27T15:24:44.322Z,14.60
2019-06-27T15:27:16.289Z,13.80
2019-06-27T15:29:44.652Z,13.70
2019-06-27T15:32:13.001Z,13.93
2019-06-27T15:34:41.378Z,14.35
2019-06-27T15:37:09.751Z,13.40
2019-06-27T15:39:38.108Z,13.57
2019-06-27T15:42:08.454Z,14.07
2019-06-27T15:44:36.826Z,13.43
2019-06-27T15:47:05.227Z,13.93
2019-06-27T15:49:33.731Z,15.13
2019-06-27T15:52:06.221Z,15.40
2019-06-27T15:54:36.652Z,15.00
2019-06-27T15:57:05.035Z,16.30
2019-06-27T15:59:33.377Z,15.37
2019-06-27T16:04:37.336Z,15.35
2019-06-27T16:09:52.022Z,15.45
2019-06-27T16:12:20.405Z,15.87
2019-06-27T16:14:48.775Z,13.83
2019-06-27T16:17:17.156Z,15.60
2019-06-27T16:19:45.491Z,14.57
2019-06-27T16:22:19.520Z,14.40
2019-06-27T16:24:48.073Z,13.97
2019-06-27T16:27:21.184Z,13.67
2019-06-27T16:29:49.597Z,13.85
2019-06-27T16:32:18.317Z,15.10
2019-06-27T16:34:46.657Z,13.30
2019-06-27T16:39:49.196Z,15.27
2019-06-27T16:42:21.434Z,14.63
2019-06-27T16:44:49.780Z,14.80
2019-06-27T16:47:20.158Z,14.03
2019-06-27T16:49:49.229Z,14.20
2019-06-27T16:52:21.951Z,15.50
2019-06-27T16:54:50.301Z,16.07
2019-06-27T16:59:53.011Z,16.17
2019-06-27T17:02:21.370Z,15.00
2019-06-27T17:04:49.738Z,15.10
2019-06-27T17:07:22.513Z,14.33
2019-06-27T17:09:50.873Z,15.03
2019-06-27T17:12:24.314Z,14.57
2019-06-27T17:14:52.673Z,13.70
2019-06-27T17:20:02.441Z,15.65
2019-06-27T17:22:30.793Z,14.40
2019-06-27T17:25:01.102Z,16.53
2019-06-27T17:27:36.697Z,13.23
2019-06-27T17:30:12.552Z,12.70
2019-06-27T17:32:42.912Z,13.90
2019-06-27T17:35:11.264Z,12.90
2019-06-27T17:37:39.675Z,13.80
2019-06-27T17:40:10.110Z,11.93
2019-06-27T17:42:47.469Z,12.70
2019-06-27T17:45:15.822Z,10.50
2019-06-27T17:47:44.185Z,11.83
2019-06-27T17:50:12.542Z,11.20
2019-06-27T17:52:52.077Z,10.53
2019-06-27T17:55:20.439Z,9.80
2019-06-27T17:57:48.842Z,10.50
2019-06-27T18:00:17.662Z,10.90
2019-06-27T18:02:46.960Z,10.50
2019-06-27T18:05:18.307Z,10.37
2019-06-27T18:07:44.745Z,9.43
2019-06-27T18:10:13.118Z,9.50
2019-06-27T18:12:43.381Z,8.47
2019-06-27T18:15:11.760Z,8.90
2019-06-27T18:17:47.344Z,8.53
2019-06-27T18:20:16.515Z,8.20
2019-06-27T18:22:51.509Z,8.20
2019-06-27T18:25:21.583Z,6.90
2019-06-27T18:27:49.910Z,6.10
2019-06-27T18:30:19.283Z,6.13
2019-06-27T18:32:53.820Z,6.60
2019-06-27T18:35:39.287Z,5.60
2019-06-27T18:38:07.621Z,6.10
2019-06-27T18:40:38.745Z,4.80
2019-06-27T18:43:07.101Z,4.30
2019-06-27T18:48:09.737Z,5.40
2019-06-27T18:53:12.469Z,5.03
2019-06-27T18:55:45.177Z,5.20
2019-06-27T18:58:13.517Z,4.47
2019-06-27T19:00:41.864Z,4.50
2019-06-27T19:03:10.200Z,4.30
2019-06-27T19:05:50.822Z,4.10
2019-06-27T19:08:19.189Z,3.20
2019-06-27T19:13:21.824Z,3.67
2019-06-27T19:18:35.113Z,3.10
2019-06-27T19:21:03.472Z,2.87
2019-06-27T19:23:37.134Z,2.90
2019-06-27T19:26:05.483Z,2.27
2019-06-27T19:28:33.825Z,2.70
2019-06-27T19:31:02.206Z,2.73
2019-06-27T19:33:30.533Z,3.03
2019-06-27T19:35:58.919Z,2.73
2019-06-27T19:38:27.252Z,2.50
2019-06-27T19:43:34.976Z,2.40
2019-06-27T19:46:03.354Z,2.20
2019-06-27T19:48:31.692Z,1.97
2019-06-27T19:51:01.937Z,2.00
2019-06-27T19:53:30.425Z,2.33
2019-06-27T19:56:00.577Z,2.03
2019-06-27T20:01:03.289Z,1.98
2019-06-27T20:06:08.037Z,2.20
2019-06-27T20:08:42.146Z,2.07
2019-06-27T20:11:10.516Z,1.83
2019-06-27T20:13:39.759Z,2.00
2019-06-27T20:16:08.101Z,1.80
2019-06-27T20:18:36.521Z,1.93
2019-06-27T20:21:04.853Z,1.80
2019-06-27T20:23:33.226Z,2.40
2019-06-27T20:26:03.804Z,2.20
2019-06-27T20:31:04.270Z,2.22
2019-06-27T20:33:44.094Z,2.17
2019-06-27T20:36:12.420Z,2.13
2019-06-27T20:38:50.986Z,2.37
2019-06-27T20:41:19.337Z,8.87
2019-06-27T20:43:51.414Z,14.90
2019-06-27T20:48:58.053Z,4.87
2019-06-27T20:54:00.728Z,6.47
2019-06-27T20:56:30.480Z,3.90
2019-06-27T20:58:58.314Z,2.30
2019-06-27T21:01:26.705Z,2.30
2019-06-27T21:03:58.792Z,2.60
2019-06-27T21:06:27.132Z,2.80
2019-06-27T21:08:55.509Z,2.03
2019-06-27T21:11:23.852Z,2.90
2019-06-27T21:13:59.772Z,2.30
2019-06-27T21:16:28.113Z,2.40
2019-06-27T21:18:56.534Z,2.40
2019-06-27T21:21:24.864Z,2.37
2019-06-27T21:23:58.962Z,2.20
2019-06-27T21:26:27.310Z,2.77
2019-06-27T21:28:55.653Z,2.80
2019-06-27T21:31:24.953Z,2.70
2019-06-27T21:33:53.330Z,3.30
2019-06-27T21:36:25.114Z,2.85
2019-06-27T21:39:06.697Z,2.60
2019-06-27T21:41:21.843Z,2.90
2019-06-27T21:43:50.197Z,3.03
2019-06-27T21:46:20.447Z,2.57
2019-06-27T21:51:23.053Z,3.58
2019-06-27T21:53:51.397Z,4.50
2019-06-27T21:56:20.638Z,3.95
2019-06-27T21:58:48.981Z,3.40
2019-06-27T22:03:51.711Z,3.00
2019-06-27T22:06:19.995Z,2.50
2019-06-27T22:08:48.344Z,3.10
2019-06-27T22:13:50.903Z,2.80
2019-06-27T22:18:53.546Z,2.60
2019-06-27T22:21:21.886Z,2.80
2019-06-27T22:23:50.233Z,2.50
2019-06-27T22:26:18.579Z,2.53
2019-06-27T22:28:46.917Z,2.17
2019-06-27T22:31:15.306Z,2.70
2019-06-27T22:33:44.694Z,2.70
2019-06-27T22:36:13.033Z,2.87
2019-06-27T22:38:46.787Z,2.70
2019-06-27T22:41:20.744Z,2.60
2019-06-27T22:43:54.641Z,2.90
2019-06-27T22:46:28.481Z,2.80
2019-06-27T22:48:58.595Z,2.67
2019-06-27T22:54:22.428Z,3.30
2019-06-27T22:56:50.802Z,2.70
2019-06-27T22:59:19.153Z,3.30
2019-06-27T23:01:47.526Z,3.17
2019-06-27T23:04:16.824Z,2.70
2019-06-27T23:06:45.165Z,2.93
2019-06-27T23:09:13.520Z,3.00
2019-06-27T23:11:41.916Z,2.57
2019-06-27T23:14:12.191Z,3.27
2019-06-27T23:16:40.532Z,3.10
2019-06-27T23:19:11.552Z,2.50
2019-06-27T23:21:37.239Z,2.40
2019-06-27T23:24:06.509Z,2.90
2019-06-27T23:26:34.857Z,2.10
2019-06-27T23:29:03.268Z,2.50
2019-06-27T23:31:31.627Z,2.70
2019-06-27T23:34:00.005Z,2.45
2019-06-27T23:39:02.674Z,2.58
2019-06-27T23:41:31.009Z,2.20
2019-06-27T23:43:59.386Z,2.30
2019-06-27T23:46:43.387Z,2.17
2019-06-27T23:49:11.954Z,2.70
2019-06-27T23:51:40.300Z,2.37
2019-06-27T23:54:08.680Z,2.40
2019-06-27T23:56:37.042Z,2.30
2019-06-27T23:59:05.388Z,2.43
